This is the latest recevied weather packets stored in our database for station/object WX4ET. If no packets are shown the sender has not sent any weather packets the latest 10 day(s).
| Time | Temp. | Humidity | Pressure | Rain* | Wind** | Luminosity | Snow |
|---|---|---|---|---|---|---|---|
| 1777730332 | 13.33° C | 52% | 1010.9 hPa | 0 mm | - | 448 W/m² | - |
| 1777730029 | 13.33° C | 51% | 1010.9 hPa | 0 mm | - | 523 W/m² | - |
| 1777729725 | 13.33° C | 50% | 1010.8 hPa | 0 mm | - | 314 W/m² | - |
| 1777729422 | 12.78° C | 51% | 1010.9 hPa | 0 mm | - | 443 W/m² | - |
| 1777729118 | 12.22° C | 51% | 1010.8 hPa | 0 mm | - | 402 W/m² | - |
| 1777728815 | 12.78° C | 51% | 1010.8 hPa | 0 mm | - | 382 W/m² | - |
| 1777728512 | 12.78° C | 51% | 1010.6 hPa | 0 mm | - | 344 W/m² | - |
| 1777728209 | 12.22° C | 53% | 1010.7 hPa | 0 mm | - | 335 W/m² | - |
| 1777727906 | 11.67° C | 55% | 1011 hPa | 0 mm | - | 70 W/m² | - |
| 1777727603 | 11.67° C | 54% | 1010.9 hPa | 0 mm | - | 152 W/m² | - |
| 1777727300 | 12.78° C | 53% | 1010.9 hPa | 0 mm | - | 116 W/m² | - |
| 1777726998 | 12.78° C | 54% | 1010.9 hPa | 0 mm | - | 300 W/m² | - |
| 1777726695 | 11.11° C | 57% | 1010.9 hPa | 0 mm | - | 229 W/m² | - |
| 1777726392 | 10.56° C | 61% | 1011 hPa | 0 mm | - | 258 W/m² | - |
| 1777726089 | 10° C | 62% | 1010.9 hPa | 0 mm | - | 111 W/m² | - |
| 1777725785 | 10° C | 63% | 1010.8 hPa | 0 mm | - | 109 W/m² | - |
| 1777725484 | 10° C | 64% | 1011.1 hPa | 0 mm | - | 117 W/m² | - |
| 1777725180 | 10.56° C | 63% | 1011 hPa | 0 mm | - | 108 W/m² | - |
| 1777724877 | 10° C | 63% | 1010.6 hPa | 0 mm | - | 92 W/m² | - |
| 1777724573 | 10° C | 63% | 1010.6 hPa | 0 mm | - | 93 W/m² | - |
| 1777724271 | 10° C | 65% | 1010.5 hPa | 0 mm | - | 86 W/m² | - |
| 1777723969 | 10° C | 66% | 1010.6 hPa | 0 mm | - | 87 W/m² | - |
| 1777723665 | 9.44° C | 67% | 1010.4 hPa | 0 mm | - | 74 W/m² | - |
| 1777723362 | 9.44° C | 67% | 1010.7 hPa | 0 mm | - | 72 W/m² | - |
| 1777723060 | 9.44° C | 65% | 1010.5 hPa | 0 mm | - | 43 W/m² | - |
* Rain latest hour (hover to see other rain measurements)
** Current wind speed in m/s (hover to see current wind gust speed)